Time;durP1;ratioP1;P1;durP2;ratioP2;P2;SDS_P1;SDS_P2;PMS_P1;PMS_P2;Temp;Humidity;BMP_temperature;BMP_pressure;BME280_temperature;BME280_humidity;BME280_pressure;Samples;Min_cycle;Max_cycle;Signal;HPM_P1;HPM_P2
2024/01/27 00:02:31;;;;;;;4.32;2.50;;;23.00;40.50;;;;;;6152632;28;81353;-58
2024/01/27 00:05:31;;;;;;;3.22;2.28;;;23.00;40.50;;;;;;6154244;28;81997;-57
2024/01/27 00:08:32;;;;;;;4.90;2.80;;;22.90;40.50;;;;;;6159171;28;80574;-58
2024/01/27 00:11:32;;;;;;;3.88;2.13;;;22.90;40.40;;;;;;6153616;28;83875;-59
2024/01/27 00:14:34;;;;;;;3.60;2.03;;;22.90;40.50;;;;;;6153333;28;81151;-58
2024/01/27 00:17:35;;;;;;;4.82;2.70;;;22.90;40.40;;;;;;6153299;28;80880;-59
2024/01/27 00:20:36;;;;;;;3.40;2.05;;;22.90;40.40;;;;;;6152906;28;80304;-58
2024/01/27 00:23:37;;;;;;;3.00;1.83;;;22.90;40.50;;;;;;6160290;28;80494;-58
2024/01/27 00:26:37;;;;;;;3.17;2.15;;;22.90;40.40;;;;;;6157951;28;80316;-58
2024/01/27 00:29:38;;;;;;;2.75;1.70;;;22.90;40.40;;;;;;6152159;28;80986;-58
2024/01/27 00:32:38;;;;;;;2.47;1.63;;;22.80;40.40;;;;;;6163813;28;87715;-58
2024/01/27 00:35:39;;;;;;;5.38;1.83;;;22.90;40.40;;;;;;6154119;28;81342;-51
2024/01/27 00:38:39;;;;;;;3.90;1.95;;;22.80;40.30;;;;;;6153289;28;80985;-52
2024/01/27 00:41:40;;;;;;;2.13;1.63;;;22.90;40.60;;;;;;6152753;28;81248;-53
2024/01/27 00:44:41;;;;;;;4.25;1.98;;;22.80;40.50;;;;;;6157562;28;80382;-50
2024/01/27 00:47:41;;;;;;;1.98;1.30;;;22.80;40.30;;;;;;6159438;28;80928;-53
2024/01/27 00:50:42;;;;;;;2.00;1.30;;;22.90;40.40;;;;;;6152765;28;80936;-55
2024/01/27 00:53:42;;;;;;;1.95;1.50;;;22.80;40.30;;;;;;6152180;28;81069;-53
2024/01/27 00:56:43;;;;;;;2.65;1.50;;;22.90;40.50;;;;;;6152552;28;80607;-50
2024/01/27 00:59:43;;;;;;;2.63;1.45;;;22.80;40.40;;;;;;6152142;28;80545;-50
2024/01/27 01:02:44;;;;;;;1.50;1.10;;;22.90;40.40;;;;;;6152032;28;80430;-51
2024/01/27 01:05:44;;;;;;;3.85;1.58;;;22.90;40.30;;;;;;6164532;28;81005;-51
2024/01/27 01:08:45;;;;;;;1.90;1.30;;;22.80;40.30;;;;;;6151641;28;80881;-50
2024/01/27 01:11:45;;;;;;;2.22;1.50;;;22.90;40.30;;;;;;6151488;28;82256;-46
2024/01/27 01:14:46;;;;;;;2.55;1.10;;;22.80;40.30;;;;;;6151161;28;80930;-49
2024/01/27 01:17:47;;;;;;;2.08;1.38;;;22.80;40.20;;;;;;6164389;28;81301;-49
2024/01/27 01:20:47;;;;;;;1.92;1.30;;;22.90;40.30;;;;;;6175380;28;80551;-50
2024/01/27 01:23:48;;;;;;;1.70;1.00;;;22.80;40.20;;;;;;6153952;28;80742;-49
2024/01/27 01:26:48;;;;;;;2.22;1.20;;;22.80;40.20;;;;;;6159587;28;80312;-50
2024/01/27 01:29:49;;;;;;;3.20;1.10;;;22.90;40.20;;;;;;6151948;28;81957;-56
2024/01/27 01:32:50;;;;;;;3.15;1.35;;;22.80;40.10;;;;;;6153297;28;81567;-57
2024/01/27 01:35:50;;;;;;;2.47;1.30;;;22.80;40.20;;;;;;6151209;28;80505;-57
2024/01/27 01:38:51;;;;;;;3.08;1.15;;;22.80;40.20;;;;;;6151039;28;80972;-58
2024/01/27 01:41:51;;;;;;;2.17;1.10;;;22.90;40.20;;;;;;6151671;28;81512;-58
2024/01/27 01:44:52;;;;;;;2.80;1.27;;;22.80;40.20;;;;;;6150566;28;80424;-58
2024/01/27 01:47:52;;;;;;;2.75;1.15;;;22.80;40.20;;;;;;6151771;28;80369;-58
2024/01/27 01:50:53;;;;;;;2.38;1.08;;;22.80;40.30;;;;;;6150132;28;80433;-57
2024/01/27 01:53:53;;;;;;;2.15;1.20;;;22.80;40.20;;;;;;6152596;28;81669;-58
2024/01/27 01:56:54;;;;;;;2.22;0.98;;;22.90;40.20;;;;;;6166977;28;83749;-57
2024/01/27 01:59:54;;;;;;;1.73;1.00;;;22.80;40.20;;;;;;6176707;28;80597;-58
2024/01/27 02:02:55;;;;;;;2.70;1.10;;;22.80;40.20;;;;;;6170013;28;81210;-58
2024/01/27 02:05:55;;;;;;;3.25;1.65;;;22.80;40.20;;;;;;6167612;28;80373;-60
2024/01/27 02:08:56;;;;;;;2.13;1.15;;;22.80;40.20;;;;;;6152802;28;80212;-59
2024/01/27 02:11:56;;;;;;;2.40;1.00;;;22.80;40.10;;;;;;6160407;28;81104;-58
2024/01/27 02:14:57;;;;;;;1.63;0.95;;;22.80;40.10;;;;;;6177900;28;82627;-58
2024/01/27 02:17:58;;;;;;;1.63;0.90;;;22.80;40.20;;;;;;6163386;28;81186;-59
2024/01/27 02:20:58;;;;;;;2.97;0.98;;;22.80;40.10;;;;;;6166869;28;80937;-59
2024/01/27 02:23:59;;;;;;;1.10;0.85;;;22.80;40.10;;;;;;6179655;28;80415;-58
2024/01/27 02:26:59;;;;;;;2.88;0.93;;;22.80;40.20;;;;;;6178265;28;82116;-58
2024/01/27 02:30:00;;;;;;;1.88;0.90;;;22.80;40.10;;;;;;6174963;28;81154;-58
2024/01/27 02:33:00;;;;;;;1.02;0.80;;;22.80;40.10;;;;;;6179897;28;80441;-58
2024/01/27 02:36:01;;;;;;;1.92;0.90;;;22.80;40.00;;;;;;6178407;28;80161;-58
2024/01/27 02:39:01;;;;;;;1.52;0.80;;;22.80;40.00;;;;;;6178514;28;80685;-58
2024/01/27 02:42:02;;;;;;;1.73;0.80;;;22.80;40.00;;;;;;6168169;28;81800;-58
2024/01/27 02:45:02;;;;;;;1.60;0.98;;;22.80;40.10;;;;;;6176040;28;81617;-58
2024/01/27 02:48:03;;;;;;;2.75;1.00;;;22.80;40.00;;;;;;6170082;28;81346;-58
2024/01/27 02:51:04;;;;;;;4.43;1.02;;;22.80;40.10;;;;;;6178987;28;82986;-56
2024/01/27 02:54:04;;;;;;;3.72;1.15;;;22.80;40.10;;;;;;6178610;28;80635;-58
2024/01/27 02:57:05;;;;;;;1.80;0.85;;;22.80;40.00;;;;;;6177562;28;80179;-59
2024/01/27 03:00:05;;;;;;;2.90;1.00;;;22.80;40.00;;;;;;6177071;28;81242;-58
2024/01/27 03:03:06;;;;;;;2.15;0.80;;;22.80;40.00;;;;;;6176989;28;82997;-57
2024/01/27 03:06:07;;;;;;;2.63;0.90;;;22.80;40.00;;;;;;6166929;28;81056;-57
2024/01/27 03:09:07;;;;;;;1.92;1.00;;;22.80;40.00;;;;;;6167975;28;80854;-57
2024/01/27 03:12:08;;;;;;;1.48;0.70;;;22.80;40.00;;;;;;6177190;28;80569;-58
2024/01/27 03:15:08;;;;;;;2.35;1.02;;;22.80;40.00;;;;;;6176835;28;82439;-58
2024/01/27 03:18:09;;;;;;;2.33;1.02;;;22.80;40.00;;;;;;6168094;28;80734;-58
2024/01/27 03:21:09;;;;;;;2.42;1.02;;;22.70;40.00;;;;;;6173485;28;80190;-60
2024/01/27 03:24:10;;;;;;;1.83;0.80;;;22.80;40.00;;;;;;6177404;28;80440;-60
2024/01/27 03:27:10;;;;;;;2.38;1.17;;;22.80;39.90;;;;;;6176762;28;81657;-59
2024/01/27 03:30:11;;;;;;;1.85;0.85;;;22.80;39.90;;;;;;6171020;28;80831;-61
2024/01/27 03:33:12;;;;;;;1.83;0.85;;;22.80;39.80;;;;;;6175782;28;80903;-60
2024/01/27 03:36:13;;;;;;;3.47;1.00;;;22.80;39.70;;;;;;6176778;28;80658;-61
2024/01/27 03:39:13;;;;;;;4.50;1.52;;;22.80;39.70;;;;;;6175421;28;80341;-62
2024/01/27 03:42:14;;;;;;;1.85;0.82;;;22.70;39.60;;;;;;6165486;28;81524;-59
2024/01/27 03:45:14;;;;;;;2.42;1.00;;;22.70;39.70;;;;;;6163863;28;80461;-60
2024/01/27 03:48:15;;;;;;;2.90;1.48;;;22.70;39.70;;;;;;6154758;28;80534;-60
2024/01/27 03:51:15;;;;;;;2.92;0.90;;;22.70;39.70;;;;;;6153679;28;80500;-60
2024/01/27 03:54:16;;;;;;;4.63;1.42;;;22.80;39.70;;;;;;6165923;28;80660;-61
2024/01/27 03:57:16;;;;;;;2.65;1.00;;;22.70;39.60;;;;;;6168067;28;81231;-61
2024/01/27 04:00:17;;;;;;;4.10;1.33;;;22.80;39.70;;;;;;6169957;28;80889;-60
2024/01/27 04:03:17;;;;;;;1.38;0.70;;;22.80;39.70;;;;;;6176170;28;80370;-59
2024/01/27 04:06:18;;;;;;;4.15;1.60;;;22.80;39.70;;;;;;6159641;28;81311;-61
2024/01/27 04:09:18;;;;;;;2.85;1.08;;;22.70;39.70;;;;;;6152668;28;80545;-61
2024/01/27 04:12:19;;;;;;;3.40;1.02;;;22.80;39.70;;;;;;6167682;28;81432;-61
2024/01/27 04:15:19;;;;;;;2.40;1.00;;;22.80;39.70;;;;;;6175354;28;81021;-61
2024/01/27 04:18:20;;;;;;;2.28;0.95;;;22.80;39.70;;;;;;6175466;28;80595;-60
2024/01/27 04:21:20;;;;;;;4.72;1.45;;;22.80;39.90;;;;;;6177099;28;80417;-61
2024/01/27 04:24:21;;;;;;;2.92;1.30;;;22.80;39.80;;;;;;6175372;28;80458;-60
2024/01/27 04:27:21;;;;;;;2.28;0.90;;;22.80;39.70;;;;;;6176180;28;80795;-60
2024/01/27 04:30:22;;;;;;;3.95;1.20;;;22.80;39.60;;;;;;6169651;28;80494;-60
2024/01/27 04:33:22;;;;;;;2.22;1.00;;;22.80;39.40;;;;;;6167758;28;80583;-58
2024/01/27 04:36:23;;;;;;;2.10;1.13;;;22.90;39.60;;;;;;6176511;28;80969;-57
2024/01/27 04:39:23;;;;;;;1.33;1.13;;;22.90;39.30;;;;;;6175982;28;82181;-58
2024/01/27 04:42:24;;;;;;;2.20;1.17;;;22.90;39.00;;;;;;6161829;28;80453;-58
2024/01/27 04:45:25;;;;;;;1.55;0.88;;;23.00;39.00;;;;;;6165107;28;80850;-58
2024/01/27 04:48:25;;;;;;;2.45;0.98;;;23.00;39.10;;;;;;6175877;28;80518;-58
2024/01/27 04:51:26;;;;;;;2.05;0.88;;;23.00;39.00;;;;;;6176558;28;80597;-57
2024/01/27 04:54:26;;;;;;;3.10;1.02;;;23.00;39.10;;;;;;6156616;28;80896;-51
2024/01/27 04:57:27;;;;;;;2.05;0.85;;;23.10;38.90;;;;;;6152316;28;81118;-48
2024/01/27 05:00:28;;;;;;;2.28;1.20;;;23.00;38.80;;;;;;6155574;28;80622;-48
2024/01/27 05:03:28;;;;;;;2.30;0.93;;;23.00;38.90;;;;;;6169400;28;80831;-47
2024/01/27 05:06:29;;;;;;;1.67;0.80;;;23.00;39.00;;;;;;6157661;28;83817;-49
2024/01/27 05:09:29;;;;;;;1.75;0.90;;;23.10;39.00;;;;;;6151916;28;80803;-48
2024/01/27 05:12:30;;;;;;;2.10;0.93;;;23.10;39.00;;;;;;6161644;28;82236;-58
2024/01/27 05:15:30;;;;;;;3.33;1.45;;;23.10;39.00;;;;;;6175813;28;81775;-58
2024/01/27 05:18:31;;;;;;;2.05;0.98;;;23.10;38.90;;;;;;6164981;28;80173;-58
2024/01/27 05:21:31;;;;;;;2.67;1.00;;;23.10;39.00;;;;;;6175439;28;80920;-58
2024/01/27 05:24:32;;;;;;;3.63;1.20;;;23.10;38.90;;;;;;6174438;28;80598;-58
2024/01/27 05:27:32;;;;;;;2.25;0.88;;;23.10;38.90;;;;;;6174992;28;81071;-58
2024/01/27 05:30:33;;;;;;;3.10;1.05;;;23.10;38.80;;;;;;6169522;28;80562;-58
2024/01/27 05:33:33;;;;;;;3.55;1.05;;;23.20;38.80;;;;;;6172238;28;80483;-59
2024/01/27 05:36:34;;;;;;;2.28;1.10;;;23.20;38.90;;;;;;6174452;28;81441;-58
2024/01/27 05:39:34;;;;;;;3.33;1.25;;;23.20;38.90;;;;;;6177252;28;80434;-58
2024/01/27 05:42:35;;;;;;;2.15;1.10;;;23.20;38.90;;;;;;6160077;28;85713;-58
2024/01/27 05:45:35;;;;;;;6.75;1.50;;;23.20;38.90;;;;;;6159796;28;80381;-58
2024/01/27 05:48:36;;;;;;;5.60;1.27;;;23.20;38.90;;;;;;6162228;28;80762;-47
2024/01/27 05:51:38;;;;;;;4.22;1.63;;;23.20;38.90;;;;;;6160728;28;81076;-51
2024/01/27 05:54:38;;;;;;;2.42;1.10;;;23.20;38.90;;;;;;6160392;28;80843;-48
2024/01/27 05:57:38;;;;;;;2.97;1.48;;;23.20;38.90;;;;;;6157183;28;84540;-48
2024/01/27 06:00:39;;;;;;;3.42;1.40;;;23.20;38.90;;;;;;6165849;28;80225;-51
2024/01/27 06:03:40;;;;;;;3.58;1.95;;;23.20;39.00;;;;;;6165622;28;81148;-58
2024/01/27 06:06:40;;;;;;;2.78;1.38;;;23.20;39.00;;;;;;6171821;28;83598;-66
2024/01/27 06:09:40;;;;;;;5.15;1.42;;;23.20;38.90;;;;;;6155934;28;80561;-69
2024/01/27 06:12:41;;;;;;;4.07;1.10;;;23.20;38.70;;;;;;6154714;28;80705;-68
2024/01/27 06:15:42;;;;;;;4.47;1.73;;;23.20;38.80;;;;;;6171443;28;80555;-67
2024/01/27 06:18:42;;;;;;;5.53;1.60;;;23.20;38.60;;;;;;6178558;28;80757;-67
2024/01/27 06:21:42;;;;;;;4.88;1.73;;;23.20;38.60;;;;;;6167368;28;80625;-67
2024/01/27 06:24:43;;;;;;;4.07;1.10;;;23.20;38.50;;;;;;6178192;28;82794;-68
2024/01/27 06:27:44;;;;;;;3.42;1.40;;;23.20;38.40;;;;;;6165870;28;81689;-67
2024/01/27 06:30:45;;;;;;;4.40;1.45;;;23.20;38.60;;;;;;6164148;28;81232;-69
2024/01/27 06:33:46;;;;;;;3.97;1.40;;;23.20;38.40;;;;;;6171057;28;80816;-68
2024/01/27 06:36:46;;;;;;;4.25;1.20;;;23.20;38.30;;;;;;6170088;28;80248;-66
2024/01/27 06:39:47;;;;;;;5.13;1.75;;;23.10;38.30;;;;;;6168064;28;80610;-52
2024/01/27 06:42:47;;;;;;;4.22;1.23;;;23.10;38.30;;;;;;6171736;28;80497;-63
2024/01/27 06:45:48;;;;;;;3.63;1.02;;;23.10;38.30;;;;;;6173654;28;82008;-61
2024/01/27 06:48:48;;;;;;;4.60;1.83;;;23.10;38.30;;;;;;6158870;28;80693;-63
2024/01/27 06:51:49;;;;;;;4.22;1.27;;;23.10;38.70;;;;;;6163365;28;81195;-66
2024/01/27 06:54:49;;;;;;;3.20;1.08;;;23.00;38.40;;;;;;6164973;28;81412;-63
2024/01/27 06:57:50;;;;;;;3.58;1.45;;;23.00;38.50;;;;;;6159802;28;81415;-61
2024/01/27 07:00:50;;;;;;;3.42;1.38;;;23.00;38.40;;;;;;6163073;28;80480;-57
2024/01/27 07:03:51;;;;;;;4.13;1.38;;;23.00;38.30;;;;;;6169792;28;81001;-58
2024/01/27 07:06:51;;;;;;;7.20;1.88;;;22.90;38.50;;;;;;6163504;28;80269;-56
2024/01/27 07:09:52;;;;;;;7.47;1.77;;;23.00;38.50;;;;;;6156224;28;80606;-57
2024/01/27 07:12:52;;;;;;;5.05;1.58;;;22.90;38.30;;;;;;6164946;28;80171;-58
2024/01/27 07:15:53;;;;;;;5.53;2.05;;;22.90;38.30;;;;;;6153882;28;80589;-58
2024/01/27 07:18:54;;;;;;;4.75;1.50;;;22.90;38.30;;;;;;6151841;28;81680;-57
2024/01/27 07:21:54;;;;;;;3.35;1.35;;;22.90;38.20;;;;;;6151776;28;81172;-57
2024/01/27 07:24:56;;;;;;;4.07;1.98;;;22.90;38.30;;;;;;6152826;28;81379;-57
2024/01/27 07:27:57;;;;;;;4.50;1.52;;;22.90;38.10;;;;;;6150535;28;80678;-57
2024/01/27 07:30:57;;;;;;;4.22;1.55;;;22.90;38.20;;;;;;6152275;28;80247;-57
2024/01/27 07:33:58;;;;;;;6.22;1.58;;;22.80;38.10;;;;;;6154175;28;80306;-57
2024/01/27 07:36:58;;;;;;;5.07;1.80;;;22.80;38.60;;;;;;6154371;28;81247;-46
2024/01/27 07:39:58;;;;;;;5.78;1.73;;;22.80;38.30;;;;;;6157550;28;83731;-48
2024/01/27 07:42:59;;;;;;;3.95;1.55;;;22.80;38.00;;;;;;6154117;28;80348;-49
2024/01/27 07:45:59;;;;;;;4.93;1.88;;;22.80;38.10;;;;;;6153567;28;80229;-51
2024/01/27 07:49:00;;;;;;;4.05;1.50;;;22.70;38.10;;;;;;6154169;28;80657;-46
2024/01/27 07:52:00;;;;;;;5.38;1.95;;;22.80;38.00;;;;;;6166647;28;80137;-50
2024/01/27 07:55:01;;;;;;;4.40;1.50;;;22.70;37.90;;;;;;6153725;28;80149;-49
2024/01/27 07:58:01;;;;;;;4.90;1.70;;;22.70;37.70;;;;;;6153622;28;80908;-48
2024/01/27 08:01:02;;;;;;;3.08;1.40;;;22.70;37.80;;;;;;6153414;28;81007;-48
2024/01/27 08:04:03;;;;;;;3.83;1.50;;;22.70;37.80;;;;;;6166953;28;80400;-47
2024/01/27 08:07:09;;;;;;;4.05;1.60;;;22.70;37.80;;;;;;6153404;28;80815;-51
2024/01/27 08:10:10;;;;;;;5.10;1.80;;;22.70;37.90;;;;;;6162738;28;85757;-48
2024/01/27 08:13:11;;;;;;;6.00;1.80;;;22.70;37.70;;;;;;6156820;28;80198;-46
2024/01/27 08:16:15;;;;;;;6.05;2.00;;;22.70;37.70;;;;;;6166151;28;80931;-47
2024/01/27 08:19:19;;;;;;;3.75;1.58;;;22.60;37.60;;;;;;6153646;28;80255;-48
2024/01/27 08:22:20;;;;;;;6.38;2.03;;;22.60;37.60;;;;;;6149546;28;80473;-47
2024/01/27 08:25:20;;;;;;;5.65;1.83;;;22.60;37.60;;;;;;6152650;28;81785;-50
2024/01/27 08:28:21;;;;;;;3.92;1.50;;;22.60;37.80;;;;;;6152334;28;80556;-52
2024/01/27 08:31:21;;;;;;;5.43;1.83;;;22.70;38.00;;;;;;6155797;28;80784;-46
2024/01/27 08:34:22;;;;;;;4.05;1.48;;;22.70;37.90;;;;;;6178298;28;80568;-58
2024/01/27 08:37:22;;;;;;;3.92;1.60;;;22.70;37.80;;;;;;6177833;28;80169;-57
2024/01/27 08:40:23;;;;;;;4.07;1.60;;;22.70;37.80;;;;;;6174770;28;81377;-57
2024/01/27 08:43:24;;;;;;;5.57;1.95;;;22.80;37.80;;;;;;6176812;28;80433;-56
2024/01/27 08:46:24;;;;;;;4.40;1.77;;;22.70;38.00;;;;;;6168424;28;83893;-57
2024/01/27 08:49:25;;;;;;;6.78;2.55;;;22.70;38.00;;;;;;6164968;28;80635;-59
2024/01/27 08:52:25;;;;;;;3.88;1.55;;;22.80;38.00;;;;;;6154157;28;80495;-52
2024/01/27 08:55:26;;;;;;;3.63;1.88;;;22.80;37.90;;;;;;6153443;28;81346;-52
2024/01/27 08:58:26;;;;;;;6.25;1.73;;;22.90;37.80;;;;;;6151102;28;80691;-52
2024/01/27 09:01:27;;;;;;;5.05;1.70;;;22.90;37.70;;;;;;6170221;28;80453;-54
2024/01/27 09:04:27;;;;;;;2.97;1.60;;;22.90;38.40;;;;;;6174862;28;84966;-50
2024/01/27 09:07:28;;;;;;;5.43;2.00;;;23.00;39.10;;;;;;6164579;28;81183;-53
2024/01/27 09:10:28;;;;;;;4.57;2.05;;;23.00;39.20;;;;;;6177710;28;80394;-51
2024/01/27 09:13:29;;;;;;;3.72;1.60;;;23.00;39.60;;;;;;6158662;28;80740;-52
2024/01/27 09:16:29;;;;;;;5.45;1.65;;;23.10;40.20;;;;;;6152877;28;80400;-51
2024/01/27 09:19:30;;;;;;;4.45;1.60;;;23.10;39.60;;;;;;6160951;28;81745;-56
2024/01/27 09:22:30;;;;;;;6.70;2.22;;;23.10;39.60;;;;;;6156319;28;80291;-51
2024/01/27 09:25:31;;;;;;;5.10;2.35;;;23.20;39.80;;;;;;6153564;28;81403;-52
2024/01/27 09:28:31;;;;;;;5.55;1.60;;;23.20;39.80;;;;;;6153757;28;82728;-62
2024/01/27 09:31:32;;;;;;;7.07;1.98;;;23.20;39.90;;;;;;6163247;28;80415;-63
2024/01/27 09:34:32;;;;;;;7.75;2.15;;;23.20;39.90;;;;;;6165339;28;81484;-61
2024/01/27 09:37:33;;;;;;;3.25;1.40;;;23.20;39.90;;;;;;6167617;28;81193;-62
2024/01/27 09:40:34;;;;;;;5.07;1.90;;;23.30;39.80;;;;;;6176839;28;87245;-61
2024/01/27 09:43:34;;;;;;;7.55;2.03;;;23.30;39.70;;;;;;6169875;28;81050;-63
2024/01/27 09:46:35;;;;;;;3.88;1.65;;;23.30;39.70;;;;;;6152689;28;80975;-66
2024/01/27 09:49:35;;;;;;;5.63;1.45;;;23.30;39.70;;;;;;6153495;28;80378;-64
2024/01/27 09:52:36;;;;;;;5.40;2.13;;;23.30;39.60;;;;;;6144358;28;84552;-64
2024/01/27 09:55:36;;;;;;;6.03;2.20;;;23.30;39.60;;;;;;6152413;28;81265;-64
2024/01/27 09:58:37;;;;;;;5.45;2.35;;;23.30;39.60;;;;;;6152662;28;80963;-64
2024/01/27 10:01:37;;;;;;;10.68;2.30;;;23.30;39.70;;;;;;6163964;28;81113;-66
2024/01/27 10:04:38;;;;;;;18.13;2.88;;;23.30;40.00;;;;;;6151023;28;80644;-68
2024/01/27 10:07:38;;;;;;;21.60;2.25;;;23.30;39.80;;;;;;6152208;28;80465;-64
2024/01/27 10:10:39;;;;;;;8.13;1.63;;;23.30;40.00;;;;;;6152520;28;80257;-57
2024/01/27 10:13:40;;;;;;;3.85;2.03;;;23.30;40.00;;;;;;6148720;28;80937;-62
2024/01/27 10:16:41;;;;;;;7.50;2.03;;;23.30;39.90;;;;;;6147445;28;80540;-64
2024/01/27 10:19:41;;;;;;;5.10;1.60;;;23.30;40.00;;;;;;6150286;28;81194;-62
2024/01/27 10:22:42;;;;;;;9.45;2.42;;;23.30;39.80;;;;;;6148181;28;80986;-66
2024/01/27 10:25:42;;;;;;;4.90;1.83;;;23.30;39.70;;;;;;6147325;28;83022;-65
2024/01/27 10:28:47;;;;;;;3.22;1.65;;;23.30;39.60;;;;;;6145822;28;81930;-63
2024/01/27 10:31:48;;;;;;;5.97;2.00;;;23.30;39.50;;;;;;6153656;28;80709;-62
2024/01/27 10:34:48;;;;;;;6.30;1.60;;;23.40;39.50;;;;;;6154213;28;80422;-65
2024/01/27 10:37:49;;;;;;;5.72;1.98;;;23.30;39.50;;;;;;6155073;28;80443;-63
2024/01/27 10:40:49;;;;;;;4.85;1.98;;;23.30;39.30;;;;;;6156602;28;80582;-61
2024/01/27 10:43:50;;;;;;;4.60;2.10;;;23.30;39.30;;;;;;6153805;28;80555;-61
2024/01/27 10:46:51;;;;;;;10.50;2.42;;;23.40;39.50;;;;;;6156462;28;80192;-62
2024/01/27 10:49:52;;;;;;;6.22;1.77;;;23.40;39.40;;;;;;6145239;28;81898;-62
2024/01/27 10:52:52;;;;;;;4.68;1.92;;;23.40;39.20;;;;;;6155697;28;80883;-63
2024/01/27 10:55:53;;;;;;;6.20;2.38;;;23.40;39.60;;;;;;6156398;28;81411;-63
2024/01/27 10:58:53;;;;;;;5.32;1.63;;;23.40;39.50;;;;;;6153110;28;82262;-64
2024/01/27 11:01:54;;;;;;;6.85;2.15;;;23.40;40.00;;;;;;6154610;28;82700;-65
2024/01/27 11:04:54;;;;;;;5.25;2.05;;;23.40;39.40;;;;;;6156403;28;81913;-65
2024/01/27 11:07:55;;;;;;;5.88;1.73;;;23.40;39.50;;;;;;6156381;28;80633;-60
2024/01/27 11:10:55;;;;;;;4.95;2.15;;;23.40;39.30;;;;;;6139732;28;80462;-62
2024/01/27 11:13:56;;;;;;;5.35;2.50;;;23.40;39.30;;;;;;6145117;28;81136;-62
2024/01/27 11:16:56;;;;;;;5.57;2.50;;;23.40;39.40;;;;;;6157137;28;80571;-63
2024/01/27 11:20:00;;;;;;;3.90;1.80;;;23.40;39.30;;;;;;6154189;28;80484;-59
2024/01/27 11:23:00;;;;;;;5.03;2.17;;;23.40;39.20;;;;;;6150176;28;80855;-58
2024/01/27 11:26:01;;;;;;;6.25;2.20;;;23.40;39.30;;;;;;6146092;28;80223;-58
2024/01/27 11:29:01;;;;;;;6.13;2.38;;;23.40;39.40;;;;;;6155407;28;80601;-58
2024/01/27 11:32:02;;;;;;;6.07;2.17;;;23.40;39.50;;;;;;6152218;28;80304;-56
2024/01/27 11:35:02;;;;;;;8.45;2.55;;;23.40;39.50;;;;;;6155459;28;80866;-57
2024/01/27 11:38:03;;;;;;;10.02;2.80;;;23.40;39.30;;;;;;6155440;28;80897;-60
2024/01/27 11:41:03;;;;;;;7.25;2.38;;;23.40;39.80;;;;;;6151831;28;81830;-58
2024/01/27 11:44:04;;;;;;;6.43;2.20;;;23.40;39.40;;;;;;6144295;28;83416;-59
2024/01/27 11:47:05;;;;;;;4.72;2.42;;;23.40;39.30;;;;;;6154079;28;80451;-59
2024/01/27 11:50:05;;;;;;;7.63;2.35;;;23.50;39.40;;;;;;6155969;28;81112;-58
2024/01/27 11:53:09;;;;;;;5.25;2.40;;;23.50;39.40;;;;;;6154634;28;80923;-58
2024/01/27 11:56:10;;;;;;;6.82;2.13;;;23.50;39.30;;;;;;6149514;28;82054;-52
2024/01/27 11:59:10;;;;;;;4.43;2.20;;;23.50;39.30;;;;;;6151937;28;80273;-57
2024/01/27 12:02:11;;;;;;;4.90;1.70;;;23.50;40.00;;;;;;6154223;28;81682;-56
2024/01/27 12:05:12;;;;;;;4.55;2.20;;;23.40;39.70;;;;;;6154950;28;80611;-60
2024/01/27 12:08:12;;;;;;;3.47;2.17;;;23.40;40.50;;;;;;6153580;28;82898;-55
2024/01/27 12:11:13;;;;;;;5.50;2.30;;;23.30;41.40;;;;;;6149319;28;81475;-57
2024/01/27 12:14:13;;;;;;;5.53;2.47;;;23.30;41.70;;;;;;6154265;28;81413;-57
2024/01/27 12:17:14;;;;;;;5.70;2.50;;;23.30;42.70;;;;;;6146947;28;82360;-59
2024/01/27 12:20:16;;;;;;;6.72;2.70;;;23.30;43.70;;;;;;6142151;28;80440;-58
2024/01/27 12:23:16;;;;;;;7.03;2.17;;;23.30;45.60;;;;;;6139616;28;80855;-52
2024/01/27 12:26:17;;;;;;;5.10;2.28;;;23.20;46.20;;;;;;6141588;28;80945;-53
2024/01/27 12:29:19;;;;;;;5.55;2.47;;;23.20;46.90;;;;;;6152716;28;80438;-53
2024/01/27 12:32:20;;;;;;;5.80;2.33;;;23.20;46.40;;;;;;6152043;28;80823;-59
2024/01/27 12:35:20;;;;;;;5.55;2.03;;;23.20;46.00;;;;;;6154458;28;80779;-60
2024/01/27 12:38:21;;;;;;;5.07;2.15;;;23.10;46.20;;;;;;6151408;28;80465;-60
2024/01/27 12:41:21;;;;;;;4.68;2.45;;;23.10;46.70;;;;;;6147388;28;83667;-60
2024/01/27 12:44:22;;;;;;;4.88;2.13;;;23.10;46.70;;;;;;6153293;28;80641;-60
2024/01/27 12:47:22;;;;;;;5.45;2.65;;;23.10;46.80;;;;;;6154098;28;81272;-60
2024/01/27 12:50:23;;;;;;;11.00;3.15;;;23.10;47.10;;;;;;6154015;28;80600;-60
2024/01/27 12:53:23;;;;;;;8.77;3.00;;;23.00;47.30;;;;;;6151566;28;81662;-59
2024/01/27 12:56:24;;;;;;;13.65;4.20;;;23.00;47.60;;;;;;6154649;28;80572;-60
2024/01/27 12:59:24;;;;;;;20.70;5.53;;;23.00;48.30;;;;;;6151405;28;80486;-59
2024/01/27 13:02:25;;;;;;;18.27;5.75;;;23.00;48.30;;;;;;6146294;28;80245;-59
2024/01/27 13:05:26;;;;;;;21.10;5.47;;;23.00;48.80;;;;;;6149590;28;80962;-60
2024/01/27 13:08:27;;;;;;;19.23;4.88;;;23.00;49.30;;;;;;6139794;28;80534;-54
2024/01/27 13:11:27;;;;;;;18.27;5.50;;;23.00;49.20;;;;;;6142741;28;83733;-52
2024/01/27 13:14:28;;;;;;;20.05;5.20;;;23.00;49.80;;;;;;6148547;28;81678;-56
2024/01/27 13:17:28;;;;;;;17.83;4.75;;;22.90;49.60;;;;;;6150634;28;81308;-53
2024/01/27 13:20:29;;;;;;;14.95;4.53;;;22.90;49.70;;;;;;6152626;28;80786;-52
2024/01/27 13:23:29;;;;;;;26.40;6.32;;;22.90;49.30;;;;;;6148704;28;81477;-55
2024/01/27 13:26:31;;;;;;;12.50;3.95;;;22.90;49.10;;;;;;6152657;28;80737;-54
2024/01/27 13:29:32;;;;;;;16.02;4.90;;;22.90;48.90;;;;;;6152704;28;80691;-55
2024/01/27 13:32:33;;;;;;;11.57;4.50;;;22.80;48.80;;;;;;6152925;28;80658;-55
2024/01/27 13:35:33;;;;;;;16.08;4.20;;;22.80;48.80;;;;;;6149605;28;81960;-55
2024/01/27 13:38:35;;;;;;;12.55;4.50;;;22.80;48.80;;;;;;6141503;28;80765;-54
2024/01/27 13:41:37;;;;;;;17.55;4.82;;;22.80;49.00;;;;;;6153457;28;81129;-56
2024/01/27 13:44:37;;;;;;;11.52;4.22;;;22.80;48.90;;;;;;6151083;28;83173;-65
2024/01/27 13:47:39;;;;;;;10.27;3.97;;;22.90;49.10;;;;;;6138455;28;81634;-63
2024/01/27 13:50:39;;;;;;;11.80;4.32;;;22.90;49.90;;;;;;6148498;28;80455;-64
2024/01/27 13:53:40;;;;;;;25.23;5.65;;;22.80;49.20;;;;;;6151676;28;80400;-63
2024/01/27 13:56:40;;;;;;;23.00;5.85;;;22.90;49.40;;;;;;6156501;28;80419;-64
2024/01/27 13:59:41;;;;;;;20.55;5.32;;;22.90;49.40;;;;;;6156848;28;80617;-65
2024/01/27 14:02:42;;;;;;;14.77;4.90;;;22.90;49.30;;;;;;6153879;28;82213;-59
2024/01/27 14:05:42;;;;;;;12.13;4.00;;;22.80;45.40;;;;;;6153753;28;80577;-60
2024/01/27 14:08:43;;;;;;;12.82;4.60;;;22.50;43.90;;;;;;6153588;28;80890;-59
2024/01/27 14:11:43;;;;;;;20.38;4.57;;;22.20;42.90;;;;;;6156387;28;80697;-59
2024/01/27 14:14:44;;;;;;;20.45;5.43;;;22.00;42.80;;;;;;6157484;28;81435;-60
2024/01/27 14:17:46;;;;;;;12.30;4.20;;;21.70;42.30;;;;;;6156360;28;81142;-61
2024/01/27 14:20:46;;;;;;;22.00;5.03;;;21.70;43.90;;;;;;6154272;28;80818;-64
2024/01/27 14:23:47;;;;;;;13.57;4.88;;;21.90;44.20;;;;;;6157164;28;81123;-61
2024/01/27 14:26:47;;;;;;;15.80;3.70;;;22.00;44.50;;;;;;6154321;28;80836;-64
2024/01/27 14:29:48;;;;;;;14.77;4.20;;;22.10;44.80;;;;;;6154706;28;80605;-64
2024/01/27 14:32:48;;;;;;;13.95;4.30;;;22.20;45.50;;;;;;6147982;28;80361;-66
2024/01/27 14:35:49;;;;;;;9.60;3.60;;;22.20;45.70;;;;;;6137720;28;80629;-64
2024/01/27 14:38:49;;;;;;;17.88;5.05;;;22.20;46.20;;;;;;6146438;28;81682;-67
2024/01/27 14:41:50;;;;;;;14.65;4.57;;;22.20;46.70;;;;;;6156715;28;81000;-57
2024/01/27 14:44:53;;;;;;;20.40;4.05;;;22.20;47.30;;;;;;6154201;28;80631;-56
2024/01/27 14:47:54;;;;;;;8.43;3.95;;;22.20;47.40;;;;;;6149431;28;80733;-58
2024/01/27 14:50:58;;;;;;;9.75;3.95;;;22.20;48.30;;;;;;6142218;28;81773;-58
2024/01/27 14:54:03;;;;;;;6.55;3.15;;;22.20;48.50;;;;;;6153915;28;84162;-57
2024/01/27 14:57:04;;;;;;;8.70;3.53;;;22.20;48.70;;;;;;6143125;28;81633;-56
2024/01/27 15:00:04;;;;;;;7.95;3.40;;;22.20;48.50;;;;;;6165703;28;80698;-56
2024/01/27 15:03:05;;;;;;;7.68;3.58;;;22.10;46.90;;;;;;6161718;28;80885;-57
2024/01/27 15:06:05;;;;;;;10.65;3.55;;;22.20;45.90;;;;;;6136788;28;81757;-56
2024/01/27 15:09:06;;;;;;;8.07;3.42;;;22.20;46.00;;;;;;6140920;28;81186;-55
2024/01/27 15:12:06;;;;;;;7.40;3.58;;;22.20;46.40;;;;;;6150260;28;80615;-55
2024/01/27 15:15:07;;;;;;;7.10;3.15;;;22.20;47.00;;;;;;6153551;28;80965;-55
2024/01/27 15:18:07;;;;;;;7.53;3.40;;;22.30;47.10;;;;;;6148978;28;80752;-58
2024/01/27 15:21:08;;;;;;;7.85;3.05;;;22.30;47.20;;;;;;6154309;28;80505;-56
2024/01/27 15:24:08;;;;;;;12.35;3.17;;;22.40;47.40;;;;;;6154353;28;80666;-55
2024/01/27 15:27:09;;;;;;;8.45;3.55;;;22.40;47.40;;;;;;6148779;28;81608;-54
2024/01/27 15:30:09;;;;;;;7.55;3.60;;;22.40;47.40;;;;;;6149970;28;82088;-56
2024/01/27 15:33:10;;;;;;;7.78;3.50;;;22.40;47.40;;;;;;6150678;28;80459;-56
2024/01/27 15:36:11;;;;;;;7.82;3.13;;;22.50;47.40;;;;;;6153377;28;80769;-63
2024/01/27 15:39:11;;;;;;;5.40;2.70;;;22.50;47.80;;;;;;6151624;28;80870;-62